• Join FlightAware (Why Join?)
  • Login
  • US Flag 
05:49AM EDT


 

Airport Tracker/Info


-or-


 

Live Flight TrackerFlight Track Log ✈ UAL119 ✈ 06-Apr-2013 ✈ KEWR - EDDF / FRA

Flight Track Log - Related Links

Times and Time Zones

All times are in EDT time to prevent confusion due to time zone crossing. See the UAL119 flight status page for this flight to view local times or setup timezone preferences in your user account.

Time Position Orientation Groundspeed Altitude Reporting Facility
EDT Latitude Longitude Course Direction KTS MPH feet Rate Location/Type
05:17PM 40.6661 -74.1876 207° Southwest 172 198 900  Level FlightAware ADS-B
05:17PM 40.6366 -74.1959 192° South 172 198 2,300 1,680 Climbing FlightAware ADS-B
05:18PM 40.6150 -74.2200 220° Southwest 229 264 2,900 1,500 Climbing FlightAware
05:18PM 40.6133 -74.2417 264° West 234 269 3,400 2,460 Climbing FlightAware ADS-B
05:18PM 40.6183 -74.2604 289° West 253 291 3,900 2,340 Climbing FlightAware ADS-B
05:18PM 40.6254 -74.2724 308° West 234 269 4,300 2,400 Climbing FlightAware ADS-B
05:19PM 40.6295 -74.2767 321° Northwest 261 300 4,500 2,640 Climbing FlightAware ADS-B
05:19PM 40.6345 -74.2806 329° Northwest 264 304 4,700 3,000 Climbing FlightAware ADS-B
05:19PM 40.6436 -74.2847 341° North 264 304 5,100 1,860 Climbing FlightAware ADS-B
05:19PM 40.6609 -74.2851 359° North 273 314 5,400 1,080 Climbing FlightAware ADS-B
05:19PM 40.6707 -74.2812 17° North 276 318 5,500 960 Climbing FlightAware ADS-B
05:19PM 40.6753 -74.2779 29° Northeast 276 318 5,600 540 Climbing FlightAware ADS-B
05:19PM 40.6820 -74.2717 35° Northeast 275 316 5,600  Level FlightAware ADS-B
05:19PM 40.6831 -74.2707 35° Northeast 259 298 5,600  Level FlightAware ADS-B
05:19PM 40.6863 -74.2666 44° Northeast 272 313 5,600 1,200 Level FlightAware ADS-B
05:19PM 40.6875 -74.2650 45° Northeast 272 313 5,700 840 Climbing FlightAware ADS-B
05:20PM 40.6968 -74.2492 52° Northeast 272 313 5,800 900 Climbing FlightAware ADS-B
05:20PM 40.7021 -74.2379 58° Northeast 272 313 6,000 1,980 Climbing FlightAware ADS-B
05:20PM 40.7069 -74.2274 59° Northeast 273 314 6,300 3,300 Climbing FlightAware ADS-B
05:20PM 40.7153 -74.2089 59° Northeast 273 314 7,100 3,720 Climbing FlightAware ADS-B
05:20PM 40.7172 -74.2044 61° Northeast 267 307 7,300 3,120 Climbing FlightAware ADS-B
05:20PM 40.7254 -74.1852 61° Northeast 270 311 8,000 2,640 Climbing FlightAware ADS-B
05:20PM 40.7279 -74.1794 60° Northeast 270 311 8,100 1,380 Climbing FlightAware ADS-B
05:21PM 40.7337 -74.1655 61° Northeast 286 329 8,300 1,620 Climbing FlightAware ADS-B
05:21PM 40.7392 -74.1514 63° Northeast 290 334 8,600 2,400 Climbing FlightAware ADS-B
05:21PM 40.7430 -74.1416 63° Northeast 290 334 8,900 2,460 Climbing FlightAware ADS-B
05:21PM 40.7491 -74.1254 64° Northeast 292 336 9,300 1,560 Climbing FlightAware ADS-B
05:21PM 40.7572 -74.1054 62° Northeast 297 342 9,500 1,200 Climbing FlightAware ADS-B
05:21PM 40.7588 -74.1014 62° Northeast 299 344 9,600 600 Climbing FlightAware ADS-B
05:22PM 40.7701 -74.0731 62° Northeast 315 362 9,700 240 Climbing FlightAware ADS-B
05:22PM 40.7730 -74.0657 63° Northeast 301 346 9,700  Level FlightAware ADS-B
05:22PM 40.7812 -74.0453 62° Northeast 320 368 9,700  Level FlightAware ADS-B
05:22PM 40.7840 -74.0388 60° Northeast 340 391 9,700  Level FlightAware ADS-B
05:22PM 40.7959 -74.0101 61° Northeast 345 397 9,700  Level FlightAware ADS-B
05:22PM 40.8029 -73.9931 61° Northeast 346 398 9,700  Level FlightAware ADS-B
05:22PM 40.8075 -73.9819 62° Northeast 345 397 9,700  Level FlightAware ADS-B
05:22PM 40.8127 -73.9699 60° Northeast 342 394 9,700  Level FlightAware ADS-B
05:23PM 40.8149 -73.9653 58° Northeast 342 394 9,700 2,040 Level FlightAware ADS-B
05:23PM 40.8391 -73.9215 54° Northeast 342 394 10,700 1,920 Climbing FlightAware ADS-B
05:23PM 40.8734 -73.8719 48° Northeast 357 411 11,600 960 Climbing FlightAware ADS-B
05:24PM 40.9020 -73.8310 47° Northeast 367 422 11,700 180 Climbing FlightAware
05:24PM 40.9098 -73.8201 47° Northeast 367 422 11,700 300 Level FlightAware ADS-B
05:25PM 40.9480 -73.7650 47° Northeast 366 421 11,900 1,260 Climbing FlightAware
05:25PM 40.9756 -73.7262 47° Northeast 370 426 12,900 2,580 Climbing FlightAware ADS-B
05:26PM 41.0115 -73.6704 50° Northeast 378 435 14,100 2,160 Climbing FlightAware ADS-B
05:26PM 41.0470 -73.6100 52° Northeast 390 449 15,300 2,160 Climbing FlightAware
05:26PM 41.0567 -73.5933 52° Northeast 393 452 15,600 2,220 Climbing FlightAware ADS-B
05:27PM 41.0890 -73.5360 53° Northeast 397 457 16,800 2,340 Climbing FlightAware
05:27PM 41.1046 -73.5083 53° Northeast 397 457 17,300 1,920 Climbing FlightAware ADS-B
05:27PM 41.1409 -73.4442 53° Northeast 399 459 18,200 1,860 Climbing FlightAware ADS-B
05:28PM 41.1879 -73.3611 53° Northeast 419 482 19,600 1,320 Climbing FlightAware ADS-B
05:28PM 41.1942 -73.3475 53° Northeast 405 466 19,600 1,440 Level Boston Center
05:34PM 41.5610 -72.4430 53° Northeast 504 580 28,900 1,500 Climbing FlightAware
05:35PM 41.5840 -72.3410 73° East 510 587 29,600 1,440 Climbing FlightAware
05:36PM 41.6200 -72.1800 73° East 506 582 31,000 1,620 Climbing FlightAware
05:36PM 41.6430 -72.0740 74° East 505 581 31,900 1,380 Climbing FlightAware
05:37PM 41.6760 -71.9220 74° East 504 580 33,000 1,260 Climbing FlightAware
05:38PM 41.7010 -71.8090 73° East 504 580 33,800 1,080 Climbing FlightAware
05:39PM 41.7280 -71.6820 74° East 503 579 34,500 900 Climbing FlightAware
05:39PM 41.7540 -71.5610 74° East 500 575 35,000 300 Climbing FlightAware
05:40PM 41.7830 -71.4240 74° East 495 570 35,000  Level FlightAware
05:41PM 41.8090 -71.3030 74° East 495 570 35,000  Level FlightAware
05:41PM 41.8370 -71.1720 74° East 499 574 35,000  Level FlightAware
05:42PM 41.8620 -71.0520 74° East 503 579 35,000  Level FlightAware
05:43PM 41.8860 -70.9340 75° East 505 581 35,000  Level FlightAware
05:44PM 41.9150 -70.7970 74° East 507 583 35,000  Level FlightAware
05:44PM 41.9350 -70.6980 75° East 508 585 35,000  Level FlightAware
05:45PM 41.9670 -70.5400 75° East 509 586 35,000  Level FlightAware
05:46PM 41.9920 -70.4160 75° East 510 587 35,000  Level FlightAware
05:46PM 42.0210 -70.2750 74° East 510 587 35,000  Level FlightAware
05:47PM 42.0460 -70.1510 75° East 510 587 35,000  Level FlightAware
05:48PM 42.0690 -70.0320 75° East 507 583 35,000  Level FlightAware
05:48PM 42.0960 -69.8990 75° East 504 580 35,000  Level FlightAware
05:49PM 42.1180 -69.7860 75° East 502 578 35,000  Level FlightAware
05:50PM 42.1440 -69.6500 75° East 498 573 35,000  Level FlightAware
05:51PM 42.1680 -69.5290 75° East 496 571 35,000  Level FlightAware
05:51PM 42.1910 -69.4090 75° East 494 568 35,000  Level FlightAware
05:52PM 42.2130 -69.2870 76° East 494 568 35,000  Level FlightAware
05:53PM 42.2420 -69.1410 75° East 496 571 35,000  Level FlightAware
05:53PM 42.2650 -69.0170 76° East 496 571 35,000  Level FlightAware
05:54PM 42.2910 -68.8820 75° East 497 572 35,000  Level FlightAware
05:55PM 42.3140 -68.7600 76° East 500 575 35,000  Level FlightAware
05:55PM 42.3360 -68.6380 76° East 506 582 35,000  Level FlightAware
05:56PM 42.3610 -68.5030 76° East 511 588 35,000  Level FlightAware
05:57PM 42.3840 -68.3760 76° East 516 594 35,000  Level FlightAware
05:58PM 42.4070 -68.2500 76° East 521 600 35,000  Level FlightAware
05:58PM 42.4270 -68.1340 77° East 521 600 35,000  Level FlightAware
05:59PM 42.4580 -67.9640 76° East 530 610 35,000  Level FlightAware
06:00PM 42.4900 -67.7790 77° East 532 612 35,000  Level FlightAware
06:01PM 42.5090 -67.6680 77° East 532 612 35,000  Level FlightAware
06:01PM 42.5280 -67.5580 77° East 532 612 35,000  Level FlightAware
06:02PM 42.5460 -67.4470 78° East 532 612 35,000  Level FlightAware
06:03PM 42.5650 -67.3360 77° East 532 612 35,000  Level FlightAware
06:04PM 42.5890 -67.1980 77° East 532 612 35,000  Level FlightAware
06:04PM 42.6080 -67.0870 77° East 532 612 35,000  Level FlightAware
06:05PM 42.6260 -66.9760 78° East 532 612 35,000  Level FlightAware
06:06PM 42.6450 -66.8660 77° East 532 612 35,000  Level FlightAware
06:06PM 42.6640 -66.7550 77° East 532 612 35,000 -1,140 Level FlightAware
06:07PM 42.8070 -66.4910 54° Northeast 511 588 33,500 -1,380 Descending FlightAware
06:08PM 42.8580 -66.3490 64° Northeast 514 592 33,000 -300 Descending FlightAware
06:09PM 42.9320 -66.1410 64° Northeast 525 604 33,000  Level FlightAware
06:10PM 42.9800 -66.0060 64° Northeast 524 603 33,000  Level FlightAware
06:10PM 43.0220 -65.8860 64° Northeast 525 604 33,000  Level FlightAware
06:11PM 43.0630 -65.7660 65° Northeast 525 604 33,000  Level FlightAware
06:12PM 43.1100 -65.6330 64° Northeast 523 602 33,000  Level FlightAware
06:12PM 43.1520 -65.5110 65° Northeast 522 601 33,000  Level FlightAware
06:13PM 43.1920 -65.3960 64° Northeast 521 600 33,000  Level FlightAware
06:14PM 43.2390 -65.2590 65° Northeast 517 595 33,000  Level FlightAware
06:15PM 43.2850 -65.1260 65° Northeast 516 594 33,000  Level FlightAware
06:15PM 43.3270 -65.0050 64° Northeast 516 594 33,000  Level FlightAware
06:16PM 43.3670 -64.8850 65° Northeast 516 594 33,000  Level FlightAware
06:17PM 43.4120 -64.7540 65° Northeast 515 593 33,000  Level FlightAware
06:17PM 43.4530 -64.6320 65° Northeast 514 592 33,000  Level FlightAware
06:18PM 43.4850 -64.5390 65° Northeast 514 592 33,000  Level FlightAware
06:19PM 43.5250 -64.4140 66° East 514 592 33,000  Level FlightAware
06:19PM 43.5580 -64.3120 66° East 514 592 33,000  Level FlightAware
06:20PM 43.5990 -64.1850 66° East 514 592 33,000  Level FlightAware
06:21PM 43.6320 -64.0830 66° East 514 592 33,000  Level FlightAware
06:22PM 43.6650 -63.9800 66° East 514 592 33,000  Level FlightAware
06:22PM 43.6970 -63.8780 67° East 514 592 33,000  Level FlightAware
06:23PM 43.7300 -63.7760 66° East 514 592 33,000  Level FlightAware
06:24PM 43.7710 -63.6480 66° East 514 592 33,000  Level FlightAware
06:24PM 43.7960 -63.5720 65° Northeast 514 592 33,000  Level FlightAware
06:25PM 43.8370 -63.4440 66° East 514 592 33,000  Level FlightAware
06:26PM 43.8700 -63.3410 66° East 514 592 33,000  Level FlightAware
06:26PM 43.9030 -63.2390 66° East 514 592 33,000  Level FlightAware
06:27PM 43.9440 -63.1100 66° East 514 592 33,000  Level FlightAware
06:28PM 43.9770 -63.0080 66° East 514 592 33,000 780 Level FlightAware
06:28PM 44.1000 -62.5833 66° East 550 633 34,000 1,260 Climbing Gander Center
06:29PM 44.1667 -62.3667 67° East 550 633 35,000 480 Climbing Gander Center
06:30PM 44.2167 -62.1833 69° East 550 633 35,000  Level Gander Center
06:31PM 44.2833 -61.9833 65° Northeast 540 621 35,000  Level Gander Center
06:32PM 44.3500 -61.8000 63° Northeast 540 621 35,000  Level Gander Center
06:33PM 44.4167 -61.6167 63° Northeast 550 633 35,000  Level Gander Center
06:34PM 44.4667 -61.4000 72° East 550 633 35,000  Level Gander Center
06:35PM 44.5167 -61.2167 69° East 560 644 35,000  Level Gander Center
06:36PM 44.5833 -61.0000 67° East 560 644 35,000  Level Gander Center
06:42PM 44.9370 -59.8370 67° East 562 647 35,000  Level FlightAware
06:43PM 44.9750 -59.6990 69° East 562 647 35,000  Level FlightAware
06:44PM 45.0100 -59.5700 69° East 562 647 35,000  Level FlightAware
06:44PM 45.0530 -59.4160 68° East 561 646 35,000  Level FlightAware
06:45PM 45.0840 -59.3020 69° East 561 646 35,000  Level FlightAware
06:46PM 45.1380 -59.1080 68° East 568 654 35,000  Level FlightAware
06:47PM 45.1820 -58.9440 69° East 568 654 35,000  Level FlightAware
06:48PM 45.2260 -58.7820 69° East 569 655 35,000  Level FlightAware
06:49PM 45.2860 -58.5550 69° East 571 657 35,000  Level FlightAware
06:49PM 45.3180 -58.4350 69° East 571 657 35,000  Level FlightAware
06:50PM 45.3500 -58.3160 69° East 571 657 35,000  Level FlightAware
06:51PM 45.3830 -58.1970 68° East 571 657 35,000  Level FlightAware
06:51PM 45.4230 -58.0480 69° East 571 657 35,000  Level FlightAware
06:52PM 45.4550 -57.9280 69° East 571 657 35,000  Level FlightAware
06:53PM 45.4870 -57.8080 69° East 571 657 35,000  Level FlightAware
06:53PM 45.5190 -57.6890 69° East 571 657 35,000  Level FlightAware
06:54PM 45.5520 -57.5690 69° East 571 657 35,000  Level FlightAware
06:55PM 45.5920 -57.4190 69° East 571 657 35,000  Level FlightAware
06:56PM 45.6240 -57.2990 69° East 571 657 35,000  Level FlightAware
06:56PM 45.7130 -56.8760 73° East 564 649 35,000  Level FlightAware
06:57PM 45.7470 -56.7350 71° East 564 649 35,000  Level FlightAware
06:58PM 45.7810 -56.5930 71° East 564 649 35,000  Level FlightAware
06:58PM 45.8150 -56.4400 72° East 563 648 35,000  Level FlightAware
06:59PM 45.8450 -56.2960 73° East 563 648 35,000  Level FlightAware
07:00PM 45.8800 -56.1300 73° East 562 647 35,000  Level FlightAware
07:01PM 45.9100 -55.9880 73° East 562 647 35,000  Level FlightAware
07:01PM 45.9400 -55.8470 73° East 561 646 35,000  Level FlightAware
07:02PM 45.9740 -55.6820 73° East 563 648 35,000  Level FlightAware
07:03PM 46.0010 -55.5560 73° East 563 648 35,000  Level FlightAware
07:03PM 46.0270 -55.4340 73° East 563 648 35,000  Level FlightAware
07:04PM 46.0530 -55.3120 73° East 563 648 35,000  Level FlightAware
07:05PM 46.0850 -55.1590 73° East 563 648 35,000  Level FlightAware
07:06PM 46.1350 -54.9000 74° East 571 657 35,000  Level FlightAware
07:06PM 46.1680 -54.7260 75° East 572 658 35,000  Level FlightAware
07:07PM 46.2030 -54.5510 74° East 573 659 35,000  Level FlightAware
07:08PM 46.2270 -54.4280 74° East 574 661 35,000  Level FlightAware
07:09PM 46.2690 -54.2080 74° East 575 662 35,000  Level FlightAware
07:09PM 46.3020 -54.0350 75° East 576 663 35,000  Level FlightAware
07:10PM 46.3300 -53.8890 74° East 577 664 35,000  Level FlightAware
07:11PM 46.3580 -53.7410 75° East 579 666 35,000  Level FlightAware
07:12PM 46.3890 -53.5770 75° East 578 665 35,000  Level FlightAware
07:12PM 46.4170 -53.4260 75° East 578 665 35,000  Level FlightAware
07:13PM 46.4480 -53.2530 75° East 578 665 35,000  Level FlightAware
07:14PM 46.4750 -53.1040 75° East 578 665 35,000  Level FlightAware
07:14PM 46.5020 -52.9550 75° East 578 665 35,000  Level FlightAware
07:15PM 46.5320 -52.7900 75° East 578 665 35,000  Level FlightAware
07:16PM 46.5580 -52.6400 76° East 577 664 35,000  Level FlightAware
07:16PM 46.5890 -52.4670 75° East 577 664 35,000 180 Level FlightAware
07:17PM 46.6150 -52.3170 76° East 570 656 35,300 720 Climbing FlightAware
07:18PM 46.6400 -52.1710 76° East 558 642 36,000 480 Climbing FlightAware
07:19PM 46.6670 -52.0120 76° East 550 633 36,000  Level FlightAware
07:19PM 46.6910 -51.8700 76° East 548 631 36,000  Level FlightAware
07:20PM 46.7190 -51.7030 76° East 553 636 36,000  Level FlightAware
07:21PM 46.7420 -51.5690 76° East 555 639 36,000  Level FlightAware
07:21PM 46.7620 -51.4510 76° East 555 639 36,000  Level FlightAware
07:22PM 46.7880 -51.2970 76° East 555 639 36,000  Level FlightAware
07:23PM 46.8090 -51.1730 76° East 555 639 36,000  Level FlightAware
07:23PM 46.8300 -51.0490 76° East 555 639 36,000  Level FlightAware
07:24PM 46.8510 -50.9250 76° East 555 639 36,000  Level FlightAware
07:25PM 46.8720 -50.8010 76° East 555 639 36,000  Level FlightAware
07:26PM 46.8990 -50.6460 76° East 555 639 36,000  Level FlightAware
07:26PM 46.9200 -50.5220 76° East 555 639 36,000  Level FlightAware
07:27PM 46.9410 -50.3980 76° East 555 639 36,000  Level FlightAware
07:28PM 46.9620 -50.2740 76° East 555 639 36,000  Level FlightAware
07:28PM 46.9830 -50.1500 76° East 555 639 36,000  Level FlightAware
07:29PM 47.0100 -49.9950 76° East 555 639 36,000  Level FlightAware
07:30PM 47.1010 -49.5600 73° East 579 666 36,000  Level FlightAware
07:31PM 47.1510 -49.3590 70° East 583 671 36,000  Level FlightAware
07:31PM 47.1820 -49.2320 70° East 583 671 36,000  Level FlightAware
07:32PM 47.2210 -49.0730 70° East 583 671 36,000  Level FlightAware
07:33PM 47.2520 -48.9460 70° East 583 671 36,000  Level FlightAware
07:33PM 47.2840 -48.8190 70° East 583 671 36,000  Level FlightAware
07:34PM 47.0000 -50.0000 70° East 584 672 36,000  Level ETMS Enhanced Traffic Management System
07:34PM 47.3150 -48.6920 70° East 583 671 36,000  Level FlightAware
07:34PM 47.3500 -48.4167 70° East 580 667 36,000  Level Gander Center
07:35PM 47.3460 -48.5650 70° East 583 671 36,000  Level FlightAware
07:36PM 47.3860 -48.4060 70° East 583 671 36,000  Level FlightAware
07:36PM 47.4170 -48.2790 70° East 583 671 36,000  Level FlightAware
07:37PM 47.4480 -48.1510 70° East 583 671 36,000  Level FlightAware
07:38PM 47.4800 -48.0240 70° East 583 671 36,000  Level FlightAware
07:38PM 47.5110 -47.8960 70° East 583 671 36,000  Level FlightAware
07:39PM 47.5500 -47.7370 70° East 583 671 36,000  Level FlightAware
07:40PM 47.5820 -47.6090 70° East 583 671 36,000  Level FlightAware
07:40PM 47.6667 -47.0667 70° East 590 679 36,000  Level Gander Center
07:41PM 47.7167 -46.8333 72° East 580 667 36,000  Level Gander Center
07:42PM 47.7500 -46.6167 77° East 590 679 36,000  Level Gander Center
07:43PM 47.8000 -46.4000 71° East 580 667 36,000  Level Gander Center
07:45PM 47.8497 -46.1875 71° East  Level FlightAware Approximate
07:52PM 48.1576 -44.8024 73° East  Level FlightAware Approximate
07:53PM 48.1981 -44.6022 73° East  Level FlightAware Approximate
07:54PM 48.2383 -44.4017 73° East  Level FlightAware Approximate
07:55PM 48.2781 -44.2010 73° East  Level FlightAware Approximate
07:56PM 48.3176 -43.9999 73° East  Level FlightAware Approximate
07:57PM 48.3562 -43.7982 75° East  Level FlightAware Approximate
07:58PM 48.3919 -43.5952 75° East  Level FlightAware Approximate
07:59PM 48.4273 -43.3920 75° East  Level FlightAware Approximate
08:00PM 48.4623 -43.1884 75° East  Level FlightAware Approximate
08:01PM 48.4969 -42.9846 76° East  Level FlightAware Approximate
08:02PM 48.5312 -42.7805 76° East  Level FlightAware Approximate
08:03PM 48.5651 -42.5761 76° East  Level FlightAware Approximate
08:04PM 48.6017 -42.3726 75° East  Level FlightAware Approximate
08:05PM 48.6381 -42.1689 75° East  Level FlightAware Approximate
08:06PM 48.6741 -41.9649 75° East  Level FlightAware Approximate
08:07PM 48.7097 -41.7606 75° East  Level FlightAware Approximate
08:08PM 48.7450 -41.5560 75° East  Level FlightAware Approximate
08:09PM 48.7799 -41.3512 75° East  Level FlightAware Approximate
08:10PM 48.8145 -41.1460 76° East  Level FlightAware Approximate
08:11PM 48.8487 -40.9406 76° East  Level FlightAware Approximate
08:12PM 48.8825 -40.7349 76° East  Level FlightAware Approximate
08:13PM 48.9160 -40.5289 76° East  Level FlightAware Approximate
08:13PM 49.0000 -40.0000 77° East 549 632 36,000  Level ETMS Enhanced Traffic Management System
08:14PM 48.9491 -40.3226 76° East  Level FlightAware Approximate
08:15PM 48.9818 -40.1161 76° East  Level FlightAware Approximate
08:16PM 49.0130 -39.9089 78° East  Level FlightAware Approximate
08:17PM 49.0423 -39.7009 78° East  Level FlightAware Approximate
08:18PM 49.0713 -39.4927 78° East  Level FlightAware Approximate
08:19PM 49.0999 -39.2843 78° East  Level FlightAware Approximate
08:20PM 49.2801 -37.9434 79° East 549 632 36,000  Level FlightAware Transoceanic
08:21PM 49.3090 -37.7135 79° East 549 632 36,000  Level FlightAware Transoceanic
08:22PM 49.3374 -37.4833 79° East 549 632 36,000  Level FlightAware Transoceanic
08:23PM 49.3653 -37.2529 80° East 549 632 36,000  Level FlightAware Transoceanic
08:24PM 49.3928 -37.0222 80° East 549 632 36,000  Level FlightAware Transoceanic
08:25PM 49.4199 -36.7912 80° East 549 632 36,000  Level FlightAware Transoceanic
08:26PM 49.4464 -36.5600 80° East 549 632 36,000  Level FlightAware Transoceanic
08:27PM 49.4725 -36.3285 80° East 549 632 36,000  Level FlightAware Transoceanic
08:28PM 49.4982 -36.0968 80° East 549 632 36,000  Level FlightAware Transoceanic
08:29PM 49.5234 -35.8649 81° East 549 632 36,000  Level FlightAware Transoceanic
08:30PM 49.5481 -35.6327 81° East 549 632 36,000  Level FlightAware Transoceanic
08:31PM 49.5723 -35.4003 81° East 549 632 36,000  Level FlightAware Transoceanic
08:32PM 49.5961 -35.1676 81° East 549 632 36,000  Level FlightAware Transoceanic
08:33PM 49.6194 -34.9348 81° East 549 632 36,000  Level FlightAware Transoceanic
08:34PM 49.6423 -34.7017 81° East 549 632 36,000  Level FlightAware Transoceanic
08:35PM 49.6647 -34.4684 82° East 549 632 36,000  Level FlightAware Transoceanic
08:36PM 49.6866 -34.2348 82° East 549 632 36,000  Level FlightAware Transoceanic
08:37PM 49.7080 -34.0011 82° East 549 632 36,000  Level FlightAware Transoceanic
08:38PM 49.7290 -33.7672 82° East 549 632 36,000  Level FlightAware Transoceanic
08:39PM 49.7495 -33.5330 82° East 549 632 36,000  Level FlightAware Transoceanic
08:40PM 49.7695 -33.2987 83° East 549 632 36,000  Level FlightAware Transoceanic
08:41PM 49.7891 -33.0642 83° East 549 632 36,000  Level FlightAware Transoceanic
08:42PM 49.8082 -32.8295 83° East 549 632 36,000  Level FlightAware Transoceanic
08:43PM 49.8268 -32.5946 83° East 549 632 36,000  Level FlightAware Transoceanic
08:44PM 49.8449 -32.3595 83° East 549 632 36,000  Level FlightAware Transoceanic
08:45PM 49.8626 -32.1243 83° East 549 632 36,000  Level FlightAware Transoceanic
08:46PM 49.8798 -31.8889 84° East 549 632 36,000  Level FlightAware Transoceanic
08:47PM 49.8965 -31.6533 84° East 549 632 36,000  Level FlightAware Transoceanic
08:48PM 49.9127 -31.4176 84° East 549 632 36,000  Level FlightAware Transoceanic
08:49PM 49.9284 -31.1817 84° East 549 632 36,000  Level FlightAware Transoceanic
08:50PM 49.9437 -30.9456 84° East 549 632 36,000  Level FlightAware Transoceanic
08:51PM 49.9585 -30.7094 85° East 549 632 36,000  Level FlightAware Transoceanic
08:52PM 49.9728 -30.4731 85° East 549 632 36,000  Level FlightAware Transoceanic
08:53PM 49.9866 -30.2366 85° East 549 632 36,000  Level FlightAware Transoceanic
08:54PM 49.9989 -30.0205 85° East  Level FlightAware Approximate
08:55PM 50.0107 -29.8042 85° East  Level FlightAware Approximate
08:56PM 50.0249 -29.8284 77° East  Level FlightAware Approximate
08:56PM 50.0000 -30.0000 77° East 526 605 36,000  Level ETMS Enhanced Traffic Management System
08:57PM 50.0552 -29.6164 77° East  Level FlightAware Approximate
08:58PM 50.0852 -29.4041 78° East  Level FlightAware Approximate
08:59PM 50.1147 -29.1916 78° East  Level FlightAware Approximate
09:00PM 50.1439 -28.9788 78° East  Level FlightAware Approximate
09:01PM 50.1727 -28.7658 78° East  Level FlightAware Approximate
09:02PM 50.2159 -28.4399 78° East 526 605 36,000  Level FlightAware Transoceanic
09:03PM 50.2450 -28.2159 79° East 526 605 36,000  Level FlightAware Transoceanic
09:04PM 50.2737 -27.9917 79° East 526 605 36,000  Level FlightAware Transoceanic
09:05PM 50.3020 -27.7671 79° East 526 605 36,000  Level FlightAware Transoceanic
09:06PM 50.3298 -27.5423 79° East 526 605 36,000  Level FlightAware Transoceanic
09:07PM 50.3572 -27.3173 79° East 526 605 36,000  Level FlightAware Transoceanic
09:08PM 50.3842 -27.0919 79° East 526 605 36,000  Level FlightAware Transoceanic
09:09PM 50.4107 -26.8664 80° East 526 605 36,000  Level FlightAware Transoceanic
09:10PM 50.4368 -26.6406 80° East 526 605 36,000  Level FlightAware Transoceanic
09:11PM 50.4625 -26.4145 80° East 526 605 36,000  Level FlightAware Transoceanic
09:12PM 50.4877 -26.1882 80° East 526 605 36,000  Level FlightAware Transoceanic
09:13PM 50.5125 -25.9616 80° East 526 605 36,000  Level FlightAware Transoceanic
09:14PM 50.5368 -25.7348 81° East 526 605 36,000  Level FlightAware Transoceanic
09:15PM 50.5607 -25.5078 81° East 526 605 36,000  Level FlightAware Transoceanic
09:16PM 50.5841 -25.2805 81° East 526 605 36,000  Level FlightAware Transoceanic
09:17PM 50.6072 -25.0531 81° East 526 605 36,000  Level FlightAware Transoceanic
09:18PM 50.6297 -24.8254 81° East 526 605 36,000  Level FlightAware Transoceanic
09:19PM 50.6519 -24.5975 81° East 526 605 36,000  Level FlightAware Transoceanic
09:20PM 50.6735 -24.3693 82° East 526 605 36,000  Level FlightAware Transoceanic
09:21PM 50.6948 -24.1410 82° East 526 605 36,000  Level FlightAware Transoceanic
09:22PM 50.7156 -23.9125 82° East 526 605 36,000  Level FlightAware Transoceanic
09:23PM 50.7359 -23.6837 82° East 526 605 36,000  Level FlightAware Transoceanic
09:24PM 50.7558 -23.4548 82° East 526 605 36,000  Level FlightAware Transoceanic
09:25PM 50.7752 -23.2257 82° East 526 605 36,000  Level FlightAware Transoceanic
09:26PM 50.7942 -22.9963 83° East 526 605 36,000  Level FlightAware Transoceanic
09:27PM 50.8128 -22.7668 83° East 526 605 36,000  Level FlightAware Transoceanic
09:28PM 50.8309 -22.5372 83° East 526 605 36,000  Level FlightAware Transoceanic
09:29PM 50.8485 -22.3073 83° East 526 605 36,000  Level FlightAware Transoceanic
09:30PM 50.8657 -22.0773 83° East 526 605 36,000  Level FlightAware Transoceanic
09:31PM 50.8824 -21.8471 84° East 526 605 36,000  Level FlightAware Transoceanic
09:32PM 50.8987 -21.6167 84° East 526 605 36,000  Level FlightAware Transoceanic
09:33PM 50.9146 -21.3862 84° East 526 605 36,000  Level FlightAware Transoceanic
09:34PM 50.9299 -21.1555 84° East 526 605 36,000  Level FlightAware Transoceanic
09:35PM 50.9449 -20.9247 84° East 526 605 36,000  Level FlightAware Transoceanic
09:36PM 50.9593 -20.6937 84° East 526 605 36,000  Level FlightAware Transoceanic
09:37PM 50.9733 -20.4626 85° East 526 605 36,000  Level FlightAware Transoceanic
09:38PM 50.9869 -20.2314 85° East 526 605 36,000  Level FlightAware Transoceanic
09:39PM 50.9994 -20.0107 85° East  Level FlightAware Approximate
09:40PM 51.0114 -19.7898 85° East  Level FlightAware Approximate
09:41PM 51.0243 -19.8035 79° East  Level FlightAware Approximate
09:42PM 51.0509 -19.5857 79° East  Level FlightAware Approximate
09:43PM 51.0770 -19.3677 79° East  Level FlightAware Approximate
09:44PM 51.1028 -19.1494 79° East  Level FlightAware Approximate
09:45PM 51.1281 -18.9309 79° East  Level FlightAware Approximate
09:46PM 51.1530 -18.7122 80° East  Level FlightAware Approximate
09:47PM 51.1776 -18.4932 80° East  Level FlightAware Approximate
09:48PM 51.2017 -18.2740 80° East  Level FlightAware Approximate
09:49PM 51.2254 -18.0546 80° East  Level FlightAware Approximate
09:50PM 51.2487 -17.8349 80° East  Level FlightAware Approximate
09:51PM 51.2715 -17.6150 80° East  Level FlightAware Approximate
09:52PM 51.2949 -17.3952 80° East  Level FlightAware Approximate
09:53PM 51.3190 -17.1754 80° East  Level FlightAware Approximate
09:54PM 51.3426 -16.9554 80° East  Level FlightAware Approximate
09:55PM 51.3658 -16.7351 80° East  Level FlightAware Approximate
09:56PM 51.3885 -16.5147 81° East  Level FlightAware Approximate
09:57PM 51.4109 -16.2940 81° East  Level FlightAware Approximate
09:58PM 51.4329 -16.0731 81° East  Level FlightAware Approximate
09:59PM 51.4544 -15.8520 81° East  Level FlightAware Approximate
10:00PM 51.4755 -15.6307 81° East  Level FlightAware Approximate
10:01PM 51.4962 -15.4092 81° East  Level FlightAware Approximate
10:02PM 51.5165 -15.1874 82° East  Level FlightAware Approximate
10:03PM 51.5363 -14.9655 82° East  Level FlightAware Approximate
10:04PM 51.5550 -14.7432 82° East  Level FlightAware Approximate
10:05PM 51.5733 -14.5208 82° East  Level FlightAware Approximate
10:06PM 51.5912 -14.2982 83° East  Level FlightAware Approximate
10:07PM 51.6086 -14.0754 83° East  Level FlightAware Approximate
10:08PM 51.6256 -13.8524 83° East  Level FlightAware Approximate
10:09PM 51.6423 -13.6293 83° East  Level FlightAware Approximate
10:10PM 51.6583 -13.4085 83° East  Level FlightAware Approximate
10:11PM 51.6739 -13.1876 83° East  Level FlightAware Approximate
10:12PM 51.6890 -12.9666 84° East  Level FlightAware Approximate
10:13PM 51.7038 -12.7453 84° East  Level FlightAware Approximate
10:14PM 51.7181 -12.5240 84° East  Level FlightAware Approximate
10:15PM 51.7321 -12.3025 84° East  Level FlightAware Approximate
10:16PM 51.7456 -12.0809 84° East  Level FlightAware Approximate
10:17PM 51.7587 -11.8591 84° East  Level FlightAware Approximate
10:18PM 51.7714 -11.6372 85° East  Level FlightAware Approximate
10:18PM 51.3040 -12.3580 85° East 468 539 38,000  Level FlightAware
10:19PM 51.7836 -11.4152 85° East  Level FlightAware Approximate
10:19PM 51.3250 -12.2150 77° East 468 539 38,000  Level FlightAware
10:20PM 51.3420 -12.1000 77° East 468 539 38,000  Level FlightAware
10:20PM 51.3580 -11.9850 77° East 468 539 38,000  Level FlightAware
10:21PM 51.3750 -11.8700 77° East 468 539 38,000  Level FlightAware
10:22PM 51.3910 -11.7550 77° East 468 539 38,000  Level FlightAware
10:22PM 51.4080 -11.6400 77° East 468 539 38,000  Level FlightAware
10:23PM 51.4290 -11.4970 77° East 468 539 38,000  Level FlightAware
10:24PM 51.4560 -11.1750 82° East 465 535 38,000  Level FlightAware
10:25PM 51.4910 -10.8890 89° East 464 534 38,000  Level FlightAware
10:26PM 51.4601 -10.8136 89° East  Level Estimated
10:26PM 51.5130 -10.7050 79° East 463 533 38,000  Level FlightAware
10:29PM 51.5151 -10.1953 89° East  Level Estimated
10:29PM 51.5780 -10.1570 89° East 463 533 38,000  Level FlightAware
10:30PM 51.6000 -9.9680 79° East 464 534 38,000  Level FlightAware
10:31PM 51.6150 -9.8320 80° East 465 535 38,000  Level FlightAware
10:32PM 51.6550 -9.4730 91° East 468 539 38,000  Level FlightAware
10:33PM 51.6115 -9.3953 91° East  Level Estimated
10:34PM 51.6830 -9.2170 80° East 470 541 38,000  Level FlightAware
10:35PM 51.7023 -8.9892 80° East 446 513 36,500  Descending FlightAware UK
10:35PM 51.7080 -8.9800 81° East 474 545 38,000  Climbing FlightAware
10:35PM 51.7086 -8.9269 81° East 448 516 36,500 -5,040 Descending FlightAware UK
10:35PM 51.7129 -8.8853 81° East 446 513 36,500  Level FlightAware UK
10:35PM 51.7192 -8.8229 81° East 448 516 36,500 3,300 Level FlightAware UK
10:35PM 51.7250 -8.8120 81° East 474 545 38,000  Climbing FlightAware
10:36PM 51.7278 -8.7399 81° East 448 516 36,500 -2,760 Descending FlightAware UK
10:36PM 51.7342 -8.6777 80° East 450 518 36,500 3,000 Level FlightAware UK
10:36PM 51.7420 -8.6500 80° East 472 543 38,000  Climbing FlightAware
10:37PM 51.7445 -8.5738 80° East 450 518 36,500 -2,520 Descending FlightAware UK
10:37PM 51.7507 -8.5117 81° East 450 518 36,500 4,080 Level FlightAware UK
10:37PM 51.7550 -8.5220 81° East 471 542 38,000  Climbing FlightAware
10:37PM 51.7589 -8.4289 81° East 446 513 36,500 -2,400 Descending FlightAware UK
10:38PM 51.7649 -8.3668 81° East 446 513 36,500 3,600 Level FlightAware UK
10:38PM 51.7720 -8.3570 81° East 470 541 38,000  Climbing FlightAware
10:38PM 51.7729 -8.2841 81° East 446 513 36,500 -2,580 Descending FlightAware UK
10:38PM 51.7790 -8.2215 81° East 446 513 36,500  Level FlightAware UK
10:39PM 51.7850 -8.1596 81° East 444 511 36,500 4,500 Level FlightAware UK
10:39PM 51.7910 -8.1660 81° East 468 539 38,000  Climbing FlightAware
10:39PM 51.7910 -8.0979 81° East 442 509 36,500 -2,700 Descending FlightAware UK
10:39PM 51.7970 -8.0360 81° East 442 509 36,500 3,720 Level FlightAware UK
10:39PM 51.8040 -8.0340 81° East 468 539 38,000  Climbing FlightAware
10:40PM 51.8047 -7.9537 81° East 442 509 36,500 -2,520 Descending FlightAware UK
10:40PM 51.8105 -7.8920 81° East 440 506 36,500 3,300 Level FlightAware UK
10:40PM 51.8190 -7.8730 81° East 467 537 38,000  Climbing FlightAware
10:40PM 51.8182 -7.8099 81° East 438 504 36,500 -2,760 Descending FlightAware UK
10:41PM 51.8239 -7.7483 81° East 440 506 36,500 3,600 Level FlightAware UK
10:41PM 51.8320 -7.7430 81° East 467 537 38,000  Climbing FlightAware
10:41PM 51.8313 -7.6662 81° East 440 506 36,500 -2,580 Descending FlightAware UK
10:41PM 51.8371 -7.6039 81° East 440 506 36,500 3,900 Level FlightAware UK
10:41PM 51.8460 -7.5870 81° East 469 540 38,000  Climbing FlightAware
10:42PM 51.8445 -7.5216 81° East 436 502 36,500 -2,460 Descending FlightAware UK
10:42PM 51.8501 -7.4598 82° East 436 502 36,500 3,420 Level FlightAware UK
10:42PM 51.8600 -7.4380 82° East 469 540 38,000  Climbing FlightAware
10:42PM 51.8573 -7.3773 82° East 436 502 36,500 -2,700 Descending FlightAware UK
10:43PM 51.8628 -7.3154 82° East 436 502 36,500 3,720 Level FlightAware UK
10:43PM 51.8720 -7.3040 82° East 469 540 38,000  Climbing FlightAware
10:43PM 51.8701 -7.2327 82° East 434 499 36,500 -2,520 Descending FlightAware UK
10:43PM 51.8756 -7.1706 82° East 436 502 36,500 4,080 Level FlightAware UK
10:43PM 51.8860 -7.1560 82° East 470 541 38,000  Climbing FlightAware
10:44PM 51.8829 -7.0878 82° East 436 502 36,500 -2,400 Descending FlightAware UK
10:44PM 51.8883 -7.0255 82° East 434 499 36,500 3,600 Level FlightAware UK
10:44PM 51.8990 -7.0030 82° East 471 542 38,000  Climbing FlightAware
10:44PM 51.8953 -6.9424 82° East 436 502 36,500 -2,580 Descending FlightAware UK
10:45PM 51.9005 -6.8800 82° East 436 502 36,500 3,900 Level FlightAware UK
10:45PM 51.9110 -6.8650 82° East 472 543 38,000  Climbing FlightAware
10:45PM 51.9076 -6.7960 82° East 434 499 36,500 -2,460 Descending FlightAware UK
10:45PM 51.9128 -6.7334 82° East 436 502 36,500 3,420 Level FlightAware UK
10:46PM 51.9250 -6.7090 82° East 474 545 38,000  Climbing FlightAware
10:46PM 51.9197 -6.6497 82° East 436 502 36,500 -2,700 Descending FlightAware UK
10:46PM 51.9249 -6.5867 82° East 436 502 36,500 3,720 Level FlightAware UK
10:46PM 51.9370 -6.5620 82° East 476 548 38,000  Climbing FlightAware
10:47PM 51.9315 -6.5025 82° East 436 502 36,500 -2,520 Descending FlightAware UK
10:47PM 51.9346 -6.4389 85° East 436 502 36,500 3,300 Level FlightAware UK
10:47PM 51.9470 -6.4050 85° East 477 549 38,000  Climbing FlightAware
10:47PM 51.9387 -6.3538 85° East 438 504 36,500 -2,760 Descending FlightAware UK
10:48PM 51.9418 -6.2899 85° East 438 504 36,500 3,600 Level FlightAware UK
10:48PM 51.9550 -6.2620 85° East 481 554 38,000  Climbing FlightAware
10:48PM 51.9464 -6.2046 85° East 440 506 36,500 -2,580 Descending FlightAware UK
10:48PM 51.9499 -6.1406 85° East 438 504 36,500 3,900 Level FlightAware UK
10:48PM 51.9630 -6.1160 85° East 483 556 38,000  Climbing FlightAware
10:49PM 51.9547 -6.0549 85° East 440 506 36,500 -2,460 Descending FlightAware UK
10:49PM 51.9585 -5.9906 84° East 442 509 36,500 3,420 Level FlightAware UK
10:49PM 51.9720 -5.9590 84° East 485 558 38,000  Climbing FlightAware
10:49PM 51.9634 -5.9038 84° East 442 509 36,500 -2,700 Descending FlightAware UK
10:50PM 51.9668 -5.8390 85° East 442 509 36,500 3,720 Level FlightAware UK
10:50PM 51.9800 -5.8150 85° East 486 559 38,000  Climbing FlightAware
10:50PM 51.9713 -5.7523 85° East 442 509 36,500 -2,520 Descending FlightAware UK
10:50PM 51.9747 -5.6872 85° East 442 509 36,500 3,300 Level FlightAware UK
10:50PM 51.9890 -5.6540 85° East 488 562 38,000  Climbing FlightAware
10:51PM 51.9793 -5.6004 85° East 442 509 36,500 -2,760 Descending FlightAware UK
10:51PM 51.9828 -5.5352 85° East 442 509 36,500 3,600 Level FlightAware UK
10:51PM 51.9970 -5.4990 85° East 491 565 38,000  Climbing FlightAware
10:51PM 51.9874 -5.4480 85° East 444 511 36,500 -2,580 Descending FlightAware UK
10:52PM 51.9906 -5.3822 85° East 444 511 36,500 3,900 Level FlightAware UK
10:52PM 52.0040 -5.3530 85° East 493 567 38,000  Climbing FlightAware
10:52PM 51.9948 -5.2936 85° East 444 511 36,500 -2,400 Descending FlightAware UK
10:52PM 51.9979 -5.2269 86° East 446 513 36,500 3,600 Level FlightAware UK
10:53PM 52.0130 -5.1920 86° East 495 570 38,000  Climbing FlightAware
10:53PM 52.0020 -5.1401 86° East 448 516 36,500 -2,700 Descending FlightAware UK
10:53PM 52.0052 -5.0739 85° East 448 516 36,500 3,720 Level FlightAware UK
10:53PM 52.0200 -5.0450 85° East 496 571 38,000  Climbing FlightAware
10:54PM 52.0096 -4.9854 85° East 450 518 36,500 -2,520 Descending FlightAware UK
10:54PM 52.0127 -4.9189 86° East 452 520 36,500 3,300 Level FlightAware UK
10:54PM 52.0280 -4.8687 86° East 497 572 38,000  Climbing FlightAware ADS-B
10:54PM 52.0166 -4.8293 86° East 454 522 36,500  Descending FlightAware UK
10:54PM 52.0333 -4.7530 86° East 496 571 38,000  Climbing FlightAware ADS-B
10:55PM 52.0213 -4.7176 86° East 452 520 36,500  Descending FlightAware UK
10:55PM 52.0383 -4.6380 86° East 496 571 38,000  Climbing FlightAware ADS-B
10:55PM 52.0269 -4.5846 86° East 452 520 36,500  Descending FlightAware UK
10:56PM 52.0434 -4.5216 86° East 496 571 38,000  Climbing FlightAware ADS-B
10:56PM 52.0316 -4.4740 86° East 450 518 36,500  Descending FlightAware UK
10:56PM 52.0482 -4.4092 86° East 495 570 38,000  Climbing FlightAware ADS-B
10:56PM 52.0361 -4.3634 86° East 450 518 36,500  Descending FlightAware UK
10:57PM 52.0529 -4.2929 86° East 495 570 38,000  Climbing FlightAware ADS-B
10:57PM 52.0406 -4.2515 86° East 452 520 36,500  Descending FlightAware UK
10:57PM 52.0575 -4.1814 86° East 494 568 38,000  Climbing FlightAware ADS-B
10:57PM 52.0449 -4.1412 86° East 450 518 36,500  Descending FlightAware UK
10:58PM 52.0623 -4.0612 86° East 493 567 38,000  Climbing FlightAware ADS-B
10:58PM 52.0499 -4.0090 86° East 448 516 36,500  Descending FlightAware UK
10:58PM 52.0660 -3.9560 86° East 491 565 38,000 5,280 Climbing FlightAware
10:58PM 52.0675 -3.9257 85° East 491 565 38,000 -3,780 Level FlightAware ADS-B
10:59PM 52.0548 -3.8766 85° East 446 513 36,500  Descending FlightAware UK
10:59PM 52.0714 -3.8150 85° East 490 564 38,000  Climbing FlightAware ADS-B
10:59PM 52.0589 -3.7687 85° East 444 511 36,500  Descending FlightAware UK
10:59PM 52.0757 -3.6995 85° East 489 563 38,000  Climbing FlightAware ADS-B
11:00PM 52.0626 -3.6579 85° East 442 509 36,500  Descending FlightAware UK
11:00PM 52.0795 -3.5883 85° East 489 563 38,000  Climbing FlightAware ADS-B
11:00PM 52.0662 -3.5502 85° East 442 509 36,500  Descending FlightAware UK
11:00PM 52.0833 -3.4774 85° East 488 562 38,000  Climbing FlightAware ADS-B
11:01PM 52.0700 -3.4381 85° East 440 506 36,500  Descending FlightAware UK
11:01PM 52.0870 -3.3658 85° East 487 560 38,000  Climbing FlightAware ADS-B
11:01PM 52.0735 -3.3298 85° East 438 504 36,500  Descending FlightAware UK
11:01PM 52.0906 -3.2497 85° East 488 562 38,000  Climbing FlightAware ADS-B
11:02PM 52.0777 -3.1998 85° East 438 504 36,500  Descending FlightAware UK
11:02PM 52.0942 -3.1354 85° East 487 560 38,000  Climbing FlightAware ADS-B
11:02PM 52.0809 -3.0906 85° East 436 502 36,500 -2,400 Descending FlightAware UK
11:02PM 52.0829 -3.0244 87° East 438 504 36,500 4,500 Level FlightAware UK
11:02PM 52.0984 -2.9924 87° East 488 562 38,000  Climbing FlightAware ADS-B
11:03PM 52.0847 -2.9595 87° East 438 504 36,500  Descending FlightAware UK
11:03PM 52.1016 -2.8816 87° East 487 560 38,000  Climbing FlightAware ADS-B
11:03PM 52.0878 -2.8494 87° East 440 506 36,500  Descending FlightAware UK
11:03PM 52.1047 -2.7696 87° East 488 562 38,000  Climbing FlightAware ADS-B
11:04PM 52.0909 -2.7392 87° East 440 506 36,500  Descending FlightAware UK
11:04PM 52.1077 -2.6570 87° East 488 562 38,000  Climbing FlightAware ADS-B
11:04PM 52.0943 -2.6083 87° East 440 506 36,500  Descending FlightAware UK
11:04PM 52.1104 -2.5458 87° East 489 563 38,000  Climbing FlightAware ADS-B
11:05PM 52.0965 -2.5200 87° East 442 509 36,500  Descending FlightAware UK
11:05PM 52.1131 -2.4350 87° East 489 563 38,000  Climbing FlightAware ADS-B
11:05PM 52.0997 -2.3881 87° East 444 511 36,500  Descending FlightAware UK
11:06PM 52.1157 -2.3249 87° East 489 563 38,000  Climbing FlightAware ADS-B
11:06PM 52.1023 -2.2772 87° East 446 513 36,500  Descending FlightAware UK
11:06PM 52.1181 -2.2140 87° East 490 564 38,000  Climbing FlightAware ADS-B
11:06PM 52.1049 -2.1662 87° East 448 516 36,500  Descending FlightAware UK
11:07PM 52.1205 -2.1015 87° East 490 564 38,000  Climbing FlightAware ADS-B
11:07PM 52.1072 -2.0568 87° East 448 516 36,500  Descending FlightAware UK
11:07PM 52.1227 -1.9913 87° East 490 564 38,000  Climbing FlightAware ADS-B
11:07PM 52.1094 -1.9458 87° East 450 518 36,500  Descending FlightAware UK
11:08PM 52.1248 -1.8803 87° East 490 564 38,000  Climbing FlightAware ADS-B
11:08PM 52.1114 -1.8355 87° East 452 520 36,500  Descending FlightAware UK
11:08PM 52.1269 -1.7687 87° East 489 563 38,000  Climbing FlightAware ADS-B
11:08PM 52.1135 -1.7246 87° East 452 520 36,500  Descending FlightAware UK
11:09PM 52.1288 -1.6586 87° East 489 563 38,000  Climbing FlightAware ADS-B
11:09PM 52.1157 -1.6144 87° East 452 520 36,500  Descending FlightAware UK
11:09PM 52.1306 -1.5472 87° East 488 562 38,000  Climbing FlightAware ADS-B
11:09PM 52.1173 -1.5051 87° East 452 520 36,500  Descending FlightAware UK
11:10PM 52.1322 -1.4351 87° East 488 562 38,000  Climbing FlightAware ADS-B
11:10PM 52.1191 -1.3952 87° East 452 520 36,500  Descending FlightAware UK
11:10PM 52.1339 -1.3218 87° East 487 560 38,000  Climbing FlightAware ADS-B
11:10PM 52.1207 -1.2854 87° East 456 525 36,500  Descending FlightAware UK
11:11PM 52.1353 -1.2123 87° East 486 559 38,000  Climbing FlightAware ADS-B
11:11PM 52.1222 -1.1758 87° East 460 529 36,500  Descending FlightAware UK
11:11PM 52.1366 -1.1016 87° East 484 557 38,000  Climbing FlightAware ADS-B
11:11PM 52.1237 -1.0672 87° East 464 534 36,500  Descending FlightAware UK
11:12PM 52.1379 -0.9914 87° East 482 555 38,000  Climbing FlightAware ADS-B
11:12PM 52.1249 -0.9570 87° East 460 529 36,500  Descending FlightAware UK
11:12PM 52.1389 -0.8833 87° East 479 551 38,000  Climbing FlightAware ADS-B
11:12PM 52.1261 -0.8490 87° East 456 525 36,500  Descending FlightAware UK
11:13PM 52.1399 -0.7722 87° East 476 548 38,000  Climbing FlightAware ADS-B
11:13PM 52.1272 -0.7415 87° East 454 522 36,500  Descending FlightAware UK
11:13PM 52.1408 -0.6652 87° East 474 545 38,000  Climbing FlightAware ADS-B
11:13PM 52.1282 -0.6338 87° East 456 525 36,500  Descending FlightAware UK
11:14PM 52.1416 -0.5576 87° East 471 542 38,000  Climbing FlightAware ADS-B
11:14PM 52.1292 -0.5261 87° East 452 520 36,500  Descending FlightAware UK
11:14PM 52.1423 -0.4514 87° East 468 539 38,000  Climbing FlightAware ADS-B
11:14PM 52.1298 -0.4224 87° East 450 518 36,500  Descending FlightAware UK
11:15PM 52.1428 -0.3449 87° East 465 535 38,000  Climbing FlightAware ADS-B
11:15PM 52.1305 -0.3151 87° East 446 513 36,500  Descending FlightAware UK
11:15PM 52.1433 -0.2397 87° East 463 533 38,000  Climbing FlightAware ADS-B
11:15PM 52.1311 -0.2104 87° East 448 516 36,500  Descending FlightAware UK
11:16PM 52.1437 -0.1350 87° East 461 531 38,000  Climbing FlightAware ADS-B
11:16PM 52.1316 -0.1067 87° East 448 516 36,500  Descending FlightAware UK
11:16PM 52.1440 -0.0287 87° East 459 528 38,000  Climbing FlightAware ADS-B
11:16PM 52.1321 0.0172 87° East 446 513 36,500  Descending FlightAware UK
11:17PM 52.1442 0.0750 87° East 457 526 38,000  Climbing FlightAware ADS-B
11:17PM 52.1323 0.1208 87° East 442 509 36,500  Descending FlightAware UK
11:17PM 52.1442 0.1790 87° East 455 524 38,000  Climbing FlightAware ADS-B
11:17PM 52.1326 0.2241 87° East 440 506 36,500  Descending FlightAware UK
11:18PM 52.1442 0.2822 87° East 455 524 38,000  Climbing FlightAware ADS-B
11:18PM 52.1328 0.3263 87° East 438 504 36,500  Descending FlightAware UK
11:18PM 52.1440 0.3850 87° East 454 522 38,000  Climbing FlightAware ADS-B
11:18PM 52.1330 0.4289 87° East 438 504 36,500  Descending FlightAware UK
11:19PM 52.1439 0.4878 87° East 454 522 38,000  Climbing FlightAware ADS-B
11:19PM 52.1328 0.5317 87° East 438 504 36,500  Descending FlightAware UK
11:19PM 52.1437 0.5915 87° East 455 524 38,000  Climbing FlightAware ADS-B
11:19PM 52.1326 0.6353 87° East 438 504 36,500  Descending FlightAware UK
11:20PM 52.1432 0.6959 87° East 456 525 38,000  Climbing FlightAware ADS-B
11:20PM 52.1325 0.7378 87° East 438 504 36,500  Descending FlightAware UK
11:20PM 52.1428 0.7999 87° East 457 526 38,000  Climbing FlightAware ADS-B
11:20PM 52.1322 0.8433 87° East 440 506 36,500  Descending FlightAware UK
11:21PM 52.1423 0.8830 87° East 458 527 38,000  Climbing FlightAware ADS-B
11:21PM 52.1301 0.9260 87° East 438 504 36,500  Descending FlightAware UK
11:21PM 52.1377 0.9874 87° East 460 529 38,000  Climbing FlightAware ADS-B
11:21PM 52.1230 1.0288 87° East 440 506 36,500  Descending FlightAware UK
11:22PM 52.1288 1.0915 87° East 462 532 38,000  Climbing FlightAware ADS-B
11:22PM 52.1129 1.1341 87° East 442 509 36,500 -2,580 Descending FlightAware UK
11:22PM 52.1063 1.1954 100° East 442 509 36,500  Level FlightAware UK
11:22PM 52.0994 1.2567 100° East 446 513 36,500 3,900 Level FlightAware UK
11:23PM 52.1068 1.2907 100° East 465 535 38,000  Climbing FlightAware ADS-B
11:23PM 52.0899 1.3395 100° East 446 513 36,500 -2,460 Descending FlightAware UK
11:23PM 52.0825 1.4023 101° East 446 513 36,500 2,880 Level FlightAware UK
11:23PM 52.0870 1.4550 101° East 466 536 38,000  Climbing FlightAware
11:24PM 52.0703 1.5045 101° East 444 511 36,500 -2,580 Descending FlightAware UK
11:24PM 52.0631 1.5669 101° East 446 513 36,500 3,900 Level FlightAware UK
11:24PM 52.0710 1.5910 101° East 468 539 38,000  Climbing FlightAware
11:24PM 52.0531 1.6508 101° East 444 511 36,500 -2,460 Descending FlightAware UK
11:25PM 52.0459 1.7112 101° East 442 509 36,500 3,420 Level FlightAware UK
11:25PM 52.0520 1.7440 101° East 469 540 38,000  Climbing FlightAware
11:25PM 52.0355 1.7976 101° East 444 511 36,500 -2,700 Descending FlightAware UK
11:25PM 52.0280 1.8597 101° East 444 511 36,500 3,900 Level FlightAware UK
11:25PM 52.0350 1.8830 101° East 473 544 38,000  Climbing FlightAware
11:26PM 52.0177 1.9450 101° East 444 511 36,500 -2,460 Descending FlightAware UK
11:26PM 52.0102 2.0075 101° East 444 511 36,500 4,260 Level FlightAware UK
11:26PM 52.0180 2.0210 101° East 475 547 38,000  Climbing FlightAware
11:26PM 52.0027 2.0709 101° East 448 516 36,500  Descending FlightAware UK
11:26PM 52.0077 2.1068 101° East 477 549 38,000  Climbing FlightAware ADS-B
11:27PM 51.9923 2.1563 101° East 448 516 36,500 -2,580 Descending FlightAware UK
11:27PM 51.9844 2.2200 101° East 450 518 36,500 4,260 Level FlightAware UK
11:27PM 51.9913 2.2393 101° East 478 550 38,000  Climbing FlightAware ADS-B
11:27PM 51.9763 2.2837 101° East 452 520 36,500 -2,760 Descending FlightAware UK
11:28PM 51.9681 2.3496 101° East 454 522 36,500  Level FlightAware UK
11:28PM 51.9603 2.4121 101° East 454 522 36,500 4,500 Level FlightAware UK
11:28PM 51.9678 2.4252 101° East 481 554 38,000  Climbing FlightAware ADS-B
11:28PM 51.9524 2.4761 101° East 458 527 36,500  Descending FlightAware UK
11:29PM 51.9523 2.5466 101° East 482 555 38,000  Climbing FlightAware ADS-B
11:29PM 51.9361 2.6062 101° East 458 527 36,500 -2,520 Descending FlightAware UK
11:29PM 51.9282 2.6694 102° East 460 529 36,500  Level FlightAware UK
11:29PM 51.9201 2.7326 102° East 460 529 36,500 3,300 Level FlightAware UK
11:30PM 51.9240 2.7610 102° East 481 554 38,000  Climbing FlightAware
11:30PM 51.9091 2.8184 102° East 460 529 36,500 -2,760 Descending FlightAware UK
11:30PM 51.9011 2.8807 102° East 462 532 36,500 3,000 Level FlightAware UK
11:30PM 51.9040 2.9180 102° East 480 552 38,000  Climbing FlightAware
11:31PM 51.8869 2.9887 102° East 460 529 36,500 -2,460 Descending FlightAware UK
11:31PM 51.8786 3.0522 102° East 458 527 36,500 4,260 Level FlightAware UK
11:31PM 51.8850 3.0630 102° East 478 550 38,000  Climbing FlightAware
11:31PM 51.8704 3.1155 102° East 458 527 36,500 -2,820 Descending FlightAware UK
11:32PM 51.8624 3.1781 102° East 458 527 36,500 3,600 Level FlightAware UK
11:32PM 51.8670 3.2000 102° East 477 549 38,000  Climbing FlightAware
11:32PM 51.8512 3.2629 102° East 456 525 36,500 -2,700 Descending FlightAware UK
11:32PM 51.8428 3.3250 102° East 456 525 36,500 3,180 Level FlightAware UK
11:32PM 51.8460 3.3550 102° East 475 547 38,000  Climbing FlightAware
11:33PM 51.8290 3.4280 102° East 454 522 36,500 -2,460 Descending FlightAware UK
11:33PM 51.8205 3.4911 102° East 452 520 36,500 4,260 Level FlightAware UK
11:33PM 51.8270 3.4930 102° East 472 543 38,000  Climbing FlightAware
11:33PM 51.8119 3.5532 102° East 452 520 36,500 -2,760 Descending FlightAware UK
11:34PM 51.8036 3.6153 102° East 450 518 36,500 3,000 Level FlightAware UK
11:34PM 51.8060 3.6440 102° East 470 541 38,000  Climbing FlightAware
11:34PM 51.7896 3.7185 102° East 450 518 36,500 -2,520 Descending FlightAware UK
11:34PM 51.7814 3.7805 102° East 448 516 36,500 4,080 Level FlightAware UK
11:35PM 51.7880 3.7800 102° East 468 539 38,000  Climbing FlightAware
11:35PM 51.7699 3.8633 102° East 448 516 36,500 -2,400 Descending FlightAware UK
11:35PM 51.7612 3.9247 103° East 446 513 36,500 4,500 Level FlightAware UK
11:35PM 51.7680 3.9180 103° East 467 537 38,000  Climbing FlightAware
11:35PM 51.7525 3.9859 103° East 442 509 36,500 -2,580 Descending FlightAware UK
11:36PM 51.7437 4.0485 103° East 444 511 36,500 3,060 Level FlightAware UK
11:36PM 51.7470 4.0710 103° East 466 536 38,000  Climbing FlightAware
11:36PM 51.7297 4.1500 103° East 442 509 36,500 -2,400 Descending FlightAware UK
11:37PM 51.7212 4.2112 103° East 442 509 36,500 4,500 Level FlightAware UK
11:37PM 51.7280 4.1980 103° East 465 535 38,000  Climbing FlightAware
11:37PM 51.7126 4.2723 103° East 440 506 36,500 -2,700 Descending FlightAware UK
11:37PM 51.7038 4.3340 103° East 444 511 36,500 3,720 Level FlightAware UK
11:37PM 51.7080 4.3420 103° East 465 535 38,000  Climbing FlightAware
11:38PM 51.6920 4.4154 103° East 444 511 36,500 -2,520 Descending FlightAware UK
11:38PM 51.6831 4.4770 103° East 446 513 36,500 3,300 Level FlightAware UK
11:38PM 51.6860 4.4950 103° East 465 535 38,000  Climbing FlightAware
11:38PM 51.6714 4.5583 103° East 444 511 36,500 -2,760 Descending FlightAware UK
11:39PM 51.6625 4.6191 103° East 444 511 36,500 3,000 Level FlightAware UK
11:39PM 51.6640 4.6480 103° East 466 536 38,000  Climbing FlightAware
11:39PM 51.6481 4.7208 103° East 442 509 36,500 -2,520 Descending FlightAware UK
11:39PM 51.6393 4.7816 103° East 442 509 36,500 4,080 Level FlightAware UK
11:39PM 51.6440 4.7840 103° East 466 536 38,000  Climbing FlightAware
11:40PM 51.6272 4.8610 103° East 444 511 36,500  Descending FlightAware UK
11:40PM 51.6240 4.9180 103° East 467 537 38,000 1,380 Climbing FlightAware
11:41PM 51.6030 5.0650 103° East 468 539 38,000  Level FlightAware
11:42PM 51.5820 5.2000 104° East 470 541 38,000 -1,380 Level FlightAware
11:42PM 51.5692 5.3167 104° East 1 1 36,500  Descending FlightAware UK
11:42PM 51.5620 5.3370 104° East 471 542 38,000 1,500 Climbing FlightAware
11:43PM 51.5390 5.4910 103° East 472 543 38,000  Level FlightAware
11:44PM 51.5170 5.6300 104° East 474 545 38,000  Level FlightAware
11:44PM 51.4940 5.7780 104° East 476 548 38,000  Level FlightAware
11:45PM 51.4730 5.9140 104° East 477 549 38,000  Level FlightAware
11:46PM 51.4520 6.0490 104° East 478 550 38,000 -1,020 Level FlightAware
11:46PM 51.4270 6.2070 104° East 479 551 36,600 -2,340 Descending FlightAware
11:47PM 51.4050 6.3460 104° East 487 560 34,700 -2,880 Descending FlightAware
11:48PM 51.3790 6.5060 105° East 487 560 32,600 -2,760 Descending FlightAware
11:49PM 51.3570 6.6430 104° East 482 555 30,800 -2,340 Descending FlightAware
11:49PM 51.3360 6.7710 105° East 468 539 29,500 -2,160 Descending FlightAware
11:50PM 51.3010 6.9190 111° Southeast 456 525 27,800 -1,740 Descending FlightAware
11:51PM 51.2540 7.0070 130° Southeast 449 517 27,100 -1,020 Descending FlightAware
11:51PM 51.1840 7.0940 142° Southeast 435 501 26,500 -1,320 Descending FlightAware
11:52PM 51.1120 7.1770 144° Southeast 424 488 25,300 -1,920 Descending FlightAware
11:53PM 51.0460 7.2530 144° Southeast 416 479 23,800 -2,160 Descending FlightAware
11:53PM 50.9760 7.3340 144° Southeast 408 470 22,300 -2,100 Descending FlightAware
11:54PM 50.9150 7.4040 144° Southeast 398 458 20,900 -1,980 Descending FlightAware
11:55PM 50.8530 7.4760 144° Southeast 383 441 19,500 -1,980 Descending FlightAware
11:56PM 50.7960 7.5410 144° Southeast 377 434 18,100 -2,100 Descending FlightAware
11:56PM 50.7370 7.6080 144° Southeast 377 434 16,700 -1,980 Descending FlightAware
11:57PM 50.6760 7.6780 144° Southeast 361 415 15,300 -1,560 Descending FlightAware
11:58PM 50.6220 7.7390 144° Southeast 358 412 14,500 -1,200 Descending FlightAware
11:58PM 50.5660 7.8020 144° Southeast 359 413 13,700 -1,200 Descending FlightAware
11:59PM 50.5060 7.8700 144° Southeast 342 394 12,800 -1,500 Descending FlightAware
12:00AM 50.4550 7.9260 145° Southeast 337 388 11,600 -1,860 Descending FlightAware
12:00AM 50.3960 7.9890 146° Southeast 336 387 10,200 -1,620 Descending FlightAware
12:01AM 50.3760 8.0020 157° South 331 381 10,000 -480 Descending FlightAware
12:01AM 50.3600 8.0060 171° South 322 371 10,000 -120 Level FlightAware
12:02AM 50.2960 7.9910 189° South 297 342 9,900 -540 Descending FlightAware
12:02AM 50.2620 7.9820 190° South 282 325 9,400 -1,320 Descending FlightAware
12:03AM 50.2230 7.9720 189° South 276 318 8,700 -1,320 Descending FlightAware
12:03AM 50.1840 7.9620 189° South 280 322 8,100 -1,440 Descending FlightAware
12:03AM 50.1530 7.9540 189° South 280 322 7,400 -1,200 Descending FlightAware
12:04AM 50.1140 7.9440 189° South 276 318 7,000 -480 Descending FlightAware
12:04AM 50.0830 7.9410 184° South 259 298 7,000 -240 Level FlightAware
12:05AM 50.0500 7.9580 162° South 239 275 6,800 -600 Descending FlightAware
12:05AM 50.0230 7.9720 162° South 239 275 6,500 -1,020 Descending FlightAware
12:06AM 49.9920 7.9890 161° South 233 268 5,900 -1,200 Descending FlightAware
12:06AM 49.9800 8.0050 139° Southeast 226 260 5,600 -1,020 Descending FlightAware
12:06AM 49.9740 8.0270 113° Southeast 216 249 5,400 -840 Descending FlightAware
12:07AM 49.9710 8.0480 103° East 207 238 5,200 -600 Descending FlightAware
12:07AM 49.9670 8.0840 100° East 196 226 5,000 -780 Descending FlightAware
12:07AM 49.9620 8.1260 100° East 190 219 4,500 -1,140 Descending FlightAware
12:08AM 49.9660 8.1580 79° East 184 212 4,000 -780 Descending FlightAware
12:08AM 49.9740 8.1960 72° East 174 200 3,800 -240 Descending FlightAware
12:09AM 49.9830 8.2320 69° East 176 203 3,800  Level FlightAware
12:09AM 49.9900 8.2620 70° East 175 201 3,800 -660 Level FlightAware
12:10AM 49.9990 8.2990 69° East 184 212 3,200 -1,200 Descending FlightAware
12:10AM 50.0060 8.3290 70° East 179 206 2,700 -1,140 Descending FlightAware
12:11AM 50.0140 8.3640 70° East 175 201 2,200 -1,140 Descending FlightAware
12:11AM 50.0210 8.3950 71° East 169 194 1,700 -840 Descending FlightAware
12:12AM 50.0290 8.4300 70° East 156 180 1,300 -780 Descending FlightAware
12:12AM 50.0370 8.4620 69° East 133 153 800 -600 Descending FlightAware
12:13AM 50.0440 8.4940 71° East 132 152 600 -300 Descending FlightAware